sensor_id;sensor_type;location;lat;lon;timestamp;temperature;humidity
54168;DHT22;40072;50.958;3.592;2022-07-23T00:00:32;15.90;99.90
54168;DHT22;40072;50.958;3.592;2022-07-23T00:02:59;15.60;99.90
54168;DHT22;40072;50.958;3.592;2022-07-23T00:05:25;15.50;99.90
54168;DHT22;40072;50.958;3.592;2022-07-23T00:07:50;15.50;99.90
54168;DHT22;40072;50.958;3.592;2022-07-23T00:10:16;15.50;99.90
54168;DHT22;40072;50.958;3.592;2022-07-23T00:12:42;15.50;99.90
54168;DHT22;40072;50.958;3.592;2022-07-23T00:15:08;15.50;99.90
54168;DHT22;40072;50.958;3.592;2022-07-23T00:17:34;15.40;99.90
54168;DHT22;40072;50.958;3.592;2022-07-23T00:20:00;15.40;99.90
54168;DHT22;40072;50.958;3.592;2022-07-23T00:22:25;15.30;99.90
54168;DHT22;40072;50.958;3.592;2022-07-23T00:24:53;15.30;99.90
54168;DHT22;40072;50.958;3.592;2022-07-23T00:27:18;15.30;99.90
54168;DHT22;40072;50.958;3.592;2022-07-23T00:29:44;15.30;99.90
54168;DHT22;40072;50.958;3.592;2022-07-23T00:32:10;15.40;99.90
54168;DHT22;40072;50.958;3.592;2022-07-23T00:34:35;15.50;99.90
54168;DHT22;40072;50.958;3.592;2022-07-23T00:37:01;15.40;99.90
54168;DHT22;40072;50.958;3.592;2022-07-23T00:39:27;15.40;99.90
54168;DHT22;40072;50.958;3.592;2022-07-23T00:41:53;15.40;99.90
54168;DHT22;40072;50.958;3.592;2022-07-23T00:44:21;15.30;99.90
54168;DHT22;40072;50.958;3.592;2022-07-23T00:46:52;15.30;99.90
54168;DHT22;40072;50.958;3.592;2022-07-23T00:49:24;15.30;99.90
54168;DHT22;40072;50.958;3.592;2022-07-23T00:51:50;15.20;99.90
54168;DHT22;40072;50.958;3.592;2022-07-23T00:54:18;15.00;99.90
54168;DHT22;40072;50.958;3.592;2022-07-23T00:56:44;14.90;99.90
54168;DHT22;40072;50.958;3.592;2022-07-23T00:59:10;15.10;99.90
54168;DHT22;40072;50.958;3.592;2022-07-23T01:01:37;15.20;99.90
54168;DHT22;40072;50.958;3.592;2022-07-23T01:04:03;15.10;99.90
54168;DHT22;40072;50.958;3.592;2022-07-23T01:06:29;15.00;99.90
54168;DHT22;40072;50.958;3.592;2022-07-23T01:08:55;15.00;99.90
54168;DHT22;40072;50.958;3.592;2022-07-23T01:11:23;15.00;99.90
54168;DHT22;40072;50.958;3.592;2022-07-23T01:13:48;15.00;99.90
54168;DHT22;40072;50.958;3.592;2022-07-23T01:16:14;15.00;99.90
54168;DHT22;40072;50.958;3.592;2022-07-23T01:18:40;14.80;99.90
54168;DHT22;40072;50.958;3.592;2022-07-23T01:21:06;14.70;99.90
54168;DHT22;40072;50.958;3.592;2022-07-23T01:23:32;14.60;99.90
54168;DHT22;40072;50.958;3.592;2022-07-23T01:25:58;14.60;99.90
54168;DHT22;40072;50.958;3.592;2022-07-23T01:28:23;14.60;99.90
54168;DHT22;40072;50.958;3.592;2022-07-23T01:30:49;14.50;99.90
54168;DHT22;40072;50.958;3.592;2022-07-23T01:33:15;14.50;99.90
54168;DHT22;40072;50.958;3.592;2022-07-23T01:35:40;14.50;99.90
54168;DHT22;40072;50.958;3.592;2022-07-23T01:38:06;14.60;99.90
54168;DHT22;40072;50.958;3.592;2022-07-23T01:40:32;14.50;99.90
54168;DHT22;40072;50.958;3.592;2022-07-23T01:42:57;14.40;99.90
54168;DHT22;40072;50.958;3.592;2022-07-23T01:45:23;14.30;99.90
54168;DHT22;40072;50.958;3.592;2022-07-23T01:47:49;14.30;99.90
54168;DHT22;40072;50.958;3.592;2022-07-23T01:50:15;14.20;99.90
54168;DHT22;40072;50.958;3.592;2022-07-23T01:52:41;14.20;99.90
54168;DHT22;40072;50.958;3.592;2022-07-23T01:55:07;14.20;99.90
54168;DHT22;40072;50.958;3.592;2022-07-23T01:57:33;14.20;99.90
54168;DHT22;40072;50.958;3.592;2022-07-23T01:59:59;14.10;99.90
54168;DHT22;40072;50.958;3.592;2022-07-23T02:02:24;14.20;99.90
54168;DHT22;40072;50.958;3.592;2022-07-23T02:04:50;14.00;99.90
54168;DHT22;40072;50.958;3.592;2022-07-23T02:07:16;14.00;99.90
54168;DHT22;40072;50.958;3.592;2022-07-23T02:09:42;14.10;99.90
54168;DHT22;40072;50.958;3.592;2022-07-23T02:12:07;14.00;99.90
54168;DHT22;40072;50.958;3.592;2022-07-23T02:14:33;14.00;99.90
54168;DHT22;40072;50.958;3.592;2022-07-23T02:16:59;13.90;99.90
54168;DHT22;40072;50.958;3.592;2022-07-23T02:19:25;13.80;99.90
54168;DHT22;40072;50.958;3.592;2022-07-23T02:21:51;13.80;99.90
54168;DHT22;40072;50.958;3.592;2022-07-23T02:24:16;13.80;99.90
54168;DHT22;40072;50.958;3.592;2022-07-23T02:26:42;13.70;99.90
54168;DHT22;40072;50.958;3.592;2022-07-23T02:29:08;13.70;99.90
54168;DHT22;40072;50.958;3.592;2022-07-23T02:31:34;13.70;99.90
54168;DHT22;40072;50.958;3.592;2022-07-23T02:34:00;13.60;99.90
54168;DHT22;40072;50.958;3.592;2022-07-23T02:36:26;13.60;99.90
54168;DHT22;40072;50.958;3.592;2022-07-23T02:38:52;13.60;99.90
54168;DHT22;40072;50.958;3.592;2022-07-23T02:41:18;13.70;99.90
54168;DHT22;40072;50.958;3.592;2022-07-23T02:43:44;13.70;99.90
54168;DHT22;40072;50.958;3.592;2022-07-23T02:46:09;13.70;99.90
54168;DHT22;40072;50.958;3.592;2022-07-23T02:48:35;13.80;99.90
54168;DHT22;40072;50.958;3.592;2022-07-23T02:51:00;13.70;99.90
54168;DHT22;40072;50.958;3.592;2022-07-23T02:53:26;13.70;99.90
54168;DHT22;40072;50.958;3.592;2022-07-23T02:55:52;13.70;99.90
54168;DHT22;40072;50.958;3.592;2022-07-23T02:58:17;13.70;99.90
54168;DHT22;40072;50.958;3.592;2022-07-23T03:00:43;13.70;99.90
54168;DHT22;40072;50.958;3.592;2022-07-23T03:03:09;13.70;99.90
54168;DHT22;40072;50.958;3.592;2022-07-23T03:05:34;13.60;99.90
54168;DHT22;40072;50.958;3.592;2022-07-23T03:08:00;13.60;99.90
54168;DHT22;40072;50.958;3.592;2022-07-23T03:10:26;13.60;99.90
54168;DHT22;40072;50.958;3.592;2022-07-23T03:12:52;13.40;99.90
54168;DHT22;40072;50.958;3.592;2022-07-23T03:15:17;13.30;99.90
54168;DHT22;40072;50.958;3.592;2022-07-23T03:17:43;13.40;99.90
54168;DHT22;40072;50.958;3.592;2022-07-23T03:20:09;13.50;99.90
54168;DHT22;40072;50.958;3.592;2022-07-23T03:22:35;13.50;99.90
54168;DHT22;40072;50.958;3.592;2022-07-23T03:25:01;13.50;99.90
54168;DHT22;40072;50.958;3.592;2022-07-23T03:27:28;13.50;99.90
54168;DHT22;40072;50.958;3.592;2022-07-23T03:29:56;13.60;99.90
54168;DHT22;40072;50.958;3.592;2022-07-23T03:32:23;13.50;99.90
54168;DHT22;40072;50.958;3.592;2022-07-23T03:34:49;13.60;99.90
54168;DHT22;40072;50.958;3.592;2022-07-23T03:37:15;13.50;99.90
54168;DHT22;40072;50.958;3.592;2022-07-23T03:39:42;13.50;99.90
54168;DHT22;40072;50.958;3.592;2022-07-23T03:42:07;13.40;99.90
54168;DHT22;40072;50.958;3.592;2022-07-23T03:44:33;13.40;99.90
54168;DHT22;40072;50.958;3.592;2022-07-23T03:46:59;13.40;99.90
54168;DHT22;40072;50.958;3.592;2022-07-23T03:49:25;13.30;99.90
54168;DHT22;40072;50.958;3.592;2022-07-23T03:51:51;13.40;99.90
54168;DHT22;40072;50.958;3.592;2022-07-23T03:54:17;13.40;99.90
54168;DHT22;40072;50.958;3.592;2022-07-23T03:56:42;13.40;99.90
54168;DHT22;40072;50.958;3.592;2022-07-23T03:59:09;13.30;99.90
54168;DHT22;40072;50.958;3.592;2022-07-23T04:01:35;13.30;99.90
54168;DHT22;40072;50.958;3.592;2022-07-23T04:04:01;13.30;99.90
54168;DHT22;40072;50.958;3.592;2022-07-23T04:06:27;13.40;99.90
54168;DHT22;40072;50.958;3.592;2022-07-23T04:08:54;13.40;99.90
54168;DHT22;40072;50.958;3.592;2022-07-23T04:11:19;13.50;99.90
54168;DHT22;40072;50.958;3.592;2022-07-23T04:13:45;13.40;99.90
54168;DHT22;40072;50.958;3.592;2022-07-23T04:16:11;13.50;99.90
54168;DHT22;40072;50.958;3.592;2022-07-23T04:18:36;13.60;99.90
54168;DHT22;40072;50.958;3.592;2022-07-23T04:21:02;13.60;99.90
54168;DHT22;40072;50.958;3.592;2022-07-23T04:23:28;13.80;99.90
54168;DHT22;40072;50.958;3.592;2022-07-23T04:25:53;13.80;99.90
54168;DHT22;40072;50.958;3.592;2022-07-23T04:28:19;14.00;99.90
54168;DHT22;40072;50.958;3.592;2022-07-23T04:30:44;14.00;99.90
54168;DHT22;40072;50.958;3.592;2022-07-23T04:33:10;14.00;99.90
54168;DHT22;40072;50.958;3.592;2022-07-23T04:35:36;14.00;99.90
54168;DHT22;40072;50.958;3.592;2022-07-23T04:38:03;13.90;99.90
54168;DHT22;40072;50.958;3.592;2022-07-23T04:40:29;13.80;99.90
54168;DHT22;40072;50.958;3.592;2022-07-23T04:42:55;13.90;99.90
54168;DHT22;40072;50.958;3.592;2022-07-23T04:45:21;13.90;99.90
54168;DHT22;40072;50.958;3.592;2022-07-23T04:47:49;14.00;99.90
54168;DHT22;40072;50.958;3.592;2022-07-23T04:50:14;14.10;99.90
54168;DHT22;40072;50.958;3.592;2022-07-23T04:52:44;14.20;99.90
54168;DHT22;40072;50.958;3.592;2022-07-23T04:55:10;14.20;99.90
54168;DHT22;40072;50.958;3.592;2022-07-23T04:57:35;14.30;99.90
54168;DHT22;40072;50.958;3.592;2022-07-23T05:00:03;14.40;99.90
54168;DHT22;40072;50.958;3.592;2022-07-23T05:02:29;14.50;99.90
54168;DHT22;40072;50.958;3.592;2022-07-23T05:04:55;14.60;99.90
54168;DHT22;40072;50.958;3.592;2022-07-23T05:07:20;14.60;99.90
54168;DHT22;40072;50.958;3.592;2022-07-23T05:09:46;14.40;99.90
54168;DHT22;40072;50.958;3.592;2022-07-23T05:12:12;14.50;99.90
54168;DHT22;40072;50.958;3.592;2022-07-23T05:14:37;14.80;99.90
54168;DHT22;40072;50.958;3.592;2022-07-23T05:17:03;14.90;99.90
54168;DHT22;40072;50.958;3.592;2022-07-23T05:19:29;14.70;99.90
54168;DHT22;40072;50.958;3.592;2022-07-23T05:21:54;14.80;99.90
54168;DHT22;40072;50.958;3.592;2022-07-23T05:24:20;15.10;99.90
54168;DHT22;40072;50.958;3.592;2022-07-23T05:26:46;15.40;99.90
54168;DHT22;40072;50.958;3.592;2022-07-23T05:29:11;15.50;99.90
54168;DHT22;40072;50.958;3.592;2022-07-23T05:31:37;15.70;99.90
54168;DHT22;40072;50.958;3.592;2022-07-23T05:34:03;15.80;99.90
54168;DHT22;40072;50.958;3.592;2022-07-23T05:36:31;15.70;99.90
54168;DHT22;40072;50.958;3.592;2022-07-23T05:38:56;15.40;99.90
54168;DHT22;40072;50.958;3.592;2022-07-23T05:41:22;15.20;99.90
54168;DHT22;40072;50.958;3.592;2022-07-23T05:43:48;15.10;99.90
54168;DHT22;40072;50.958;3.592;2022-07-23T05:46:13;15.10;99.90
54168;DHT22;40072;50.958;3.592;2022-07-23T05:48:39;15.10;99.90
54168;DHT22;40072;50.958;3.592;2022-07-23T05:51:05;15.10;99.90
54168;DHT22;40072;50.958;3.592;2022-07-23T05:53:32;15.20;99.90
54168;DHT22;40072;50.958;3.592;2022-07-23T05:55:58;15.40;99.90
54168;DHT22;40072;50.958;3.592;2022-07-23T05:58:23;15.60;99.90
54168;DHT22;40072;50.958;3.592;2022-07-23T06:00:49;15.70;99.90
54168;DHT22;40072;50.958;3.592;2022-07-23T06:03:15;16.10;99.90
54168;DHT22;40072;50.958;3.592;2022-07-23T06:05:40;16.70;99.90
54168;DHT22;40072;50.958;3.592;2022-07-23T06:08:06;17.00;99.90
54168;DHT22;40072;50.958;3.592;2022-07-23T06:10:32;17.10;99.90
54168;DHT22;40072;50.958;3.592;2022-07-23T06:12:57;17.30;99.90
54168;DHT22;40072;50.958;3.592;2022-07-23T06:15:23;17.40;99.90
54168;DHT22;40072;50.958;3.592;2022-07-23T06:17:49;17.20;99.90
54168;DHT22;40072;50.958;3.592;2022-07-23T06:20:14;17.30;99.90
54168;DHT22;40072;50.958;3.592;2022-07-23T06:22:40;17.00;99.90
54168;DHT22;40072;50.958;3.592;2022-07-23T06:25:06;17.10;99.90
54168;DHT22;40072;50.958;3.592;2022-07-23T06:27:32;17.30;99.90
54168;DHT22;40072;50.958;3.592;2022-07-23T06:29:58;17.30;99.90
54168;DHT22;40072;50.958;3.592;2022-07-23T06:32:23;18.10;99.90
54168;DHT22;40072;50.958;3.592;2022-07-23T06:34:49;19.10;99.90
54168;DHT22;40072;50.958;3.592;2022-07-23T06:37:15;20.30;99.90
54168;DHT22;40072;50.958;3.592;2022-07-23T06:39:42;21.00;99.90
54168;DHT22;40072;50.958;3.592;2022-07-23T06:42:07;20.50;99.90
54168;DHT22;40072;50.958;3.592;2022-07-23T06:44:33;20.10;99.90
54168;DHT22;40072;50.958;3.592;2022-07-23T06:46:59;20.00;99.90
54168;DHT22;40072;50.958;3.592;2022-07-23T06:49:24;19.80;99.90
54168;DHT22;40072;50.958;3.592;2022-07-23T06:51:50;19.00;99.90
54168;DHT22;40072;50.958;3.592;2022-07-23T06:54:15;18.80;99.90
54168;DHT22;40072;50.958;3.592;2022-07-23T06:56:41;18.90;99.90
54168;DHT22;40072;50.958;3.592;2022-07-23T06:59:08;19.20;99.90
54168;DHT22;40072;50.958;3.592;2022-07-23T07:01:34;19.30;99.90
54168;DHT22;40072;50.958;3.592;2022-07-23T07:04:00;19.10;99.90
54168;DHT22;40072;50.958;3.592;2022-07-23T07:06:25;18.50;99.90
54168;DHT22;40072;50.958;3.592;2022-07-23T07:08:51;18.40;99.90
54168;DHT22;40072;50.958;3.592;2022-07-23T07:11:17;18.70;99.90
54168;DHT22;40072;50.958;3.592;2022-07-23T07:13:42;19.00;99.90
54168;DHT22;40072;50.958;3.592;2022-07-23T07:16:08;19.30;99.90
54168;DHT22;40072;50.958;3.592;2022-07-23T07:18:33;19.70;99.90
54168;DHT22;40072;50.958;3.592;2022-07-23T07:20:59;19.90;99.90
54168;DHT22;40072;50.958;3.592;2022-07-23T07:23:25;20.20;99.90
54168;DHT22;40072;50.958;3.592;2022-07-23T07:25:51;20.80;99.90
54168;DHT22;40072;50.958;3.592;2022-07-23T07:28:16;21.00;99.90
54168;DHT22;40072;50.958;3.592;2022-07-23T07:30:42;21.50;99.90
54168;DHT22;40072;50.958;3.592;2022-07-23T07:33:07;21.20;99.90
54168;DHT22;40072;50.958;3.592;2022-07-23T07:35:33;20.50;99.90
54168;DHT22;40072;50.958;3.592;2022-07-23T07:38:00;20.50;99.90
54168;DHT22;40072;50.958;3.592;2022-07-23T07:40:26;20.70;99.90
54168;DHT22;40072;50.958;3.592;2022-07-23T07:42:53;20.90;99.90
54168;DHT22;40072;50.958;3.592;2022-07-23T07:45:24;21.30;99.90
54168;DHT22;40072;50.958;3.592;2022-07-23T07:47:51;21.20;99.90
54168;DHT22;40072;50.958;3.592;2022-07-23T07:50:17;20.50;99.90
54168;DHT22;40072;50.958;3.592;2022-07-23T07:52:42;20.20;99.90
54168;DHT22;40072;50.958;3.592;2022-07-23T07:55:08;20.80;99.90
54168;DHT22;40072;50.958;3.592;2022-07-23T07:57:35;21.00;99.90
54168;DHT22;40072;50.958;3.592;2022-07-23T08:00:00;20.70;99.90
54168;DHT22;40072;50.958;3.592;2022-07-23T08:02:26;21.00;99.90
54168;DHT22;40072;50.958;3.592;2022-07-23T08:04:52;21.20;99.90
54168;DHT22;40072;50.958;3.592;2022-07-23T08:07:18;21.50;99.90
54168;DHT22;40072;50.958;3.592;2022-07-23T08:09:44;21.10;99.90
54168;DHT22;40072;50.958;3.592;2022-07-23T08:12:09;21.20;99.90
54168;DHT22;40072;50.958;3.592;2022-07-23T08:14:35;21.50;99.90
54168;DHT22;40072;50.958;3.592;2022-07-23T08:17:01;21.80;99.90
54168;DHT22;40072;50.958;3.592;2022-07-23T08:19:26;22.10;99.90
54168;DHT22;40072;50.958;3.592;2022-07-23T08:21:52;22.60;99.90
54168;DHT22;40072;50.958;3.592;2022-07-23T08:24:18;22.40;99.90
54168;DHT22;40072;50.958;3.592;2022-07-23T08:26:43;22.50;99.90
54168;DHT22;40072;50.958;3.592;2022-07-23T08:29:09;23.00;99.90
54168;DHT22;40072;50.958;3.592;2022-07-23T08:31:35;23.30;99.90
54168;DHT22;40072;50.958;3.592;2022-07-23T08:34:01;23.60;99.90
54168;DHT22;40072;50.958;3.592;2022-07-23T08:36:28;23.30;99.90
54168;DHT22;40072;50.958;3.592;2022-07-23T08:38:54;23.10;99.90
54168;DHT22;40072;50.958;3.592;2022-07-23T08:41:20;23.60;99.90
54168;DHT22;40072;50.958;3.592;2022-07-23T08:43:46;23.90;99.90
54168;DHT22;40072;50.958;3.592;2022-07-23T08:46:13;23.40;99.90
54168;DHT22;40072;50.958;3.592;2022-07-23T08:48:39;23.20;99.90
54168;DHT22;40072;50.958;3.592;2022-07-23T08:51:05;23.30;99.90
54168;DHT22;40072;50.958;3.592;2022-07-23T08:53:33;23.30;99.90
54168;DHT22;40072;50.958;3.592;2022-07-23T08:56:00;23.10;99.90
54168;DHT22;40072;50.958;3.592;2022-07-23T08:58:30;23.70;99.90
54168;DHT22;40072;50.958;3.592;2022-07-23T09:00:56;24.00;96.10
54168;DHT22;40072;50.958;3.592;2022-07-23T09:03:24;23.70;96.80
54168;DHT22;40072;50.958;3.592;2022-07-23T09:05:51;22.70;98.20
54168;DHT22;40072;50.958;3.592;2022-07-23T09:08:19;23.20;97.70
54168;DHT22;40072;50.958;3.592;2022-07-23T09:10:56;23.20;97.70
54168;DHT22;40072;50.958;3.592;2022-07-23T09:15:54;22.80;95.80
54168;DHT22;40072;50.958;3.592;2022-07-23T09:18:38;23.00;96.60
54168;DHT22;40072;50.958;3.592;2022-07-23T09:21:12;23.10;96.40
54168;DHT22;40072;50.958;3.592;2022-07-23T09:23:45;23.30;97.50
54168;DHT22;40072;50.958;3.592;2022-07-23T09:26:22;23.00;97.40
54168;DHT22;40072;50.958;3.592;2022-07-23T09:28:58;23.10;98.40
54168;DHT22;40072;50.958;3.592;2022-07-23T09:31:27;23.80;97.70
54168;DHT22;40072;50.958;3.592;2022-07-23T09:34:07;23.30;95.90
54168;DHT22;40072;50.958;3.592;2022-07-23T09:36:33;23.40;97.20
54168;DHT22;40072;50.958;3.592;2022-07-23T09:38:59;23.60;95.90
54168;DHT22;40072;50.958;3.592;2022-07-23T09:41:37;24.00;95.40
54168;DHT22;40072;50.958;3.592;2022-07-23T09:44:08;24.60;95.00
54168;DHT22;40072;50.958;3.592;2022-07-23T09:46:35;24.90;93.80
54168;DHT22;40072;50.958;3.592;2022-07-23T09:49:19;25.10;94.00
54168;DHT22;40072;50.958;3.592;2022-07-23T09:51:48;25.30;93.70
54168;DHT22;40072;50.958;3.592;2022-07-23T09:54:40;25.00;93.50
54168;DHT22;40072;50.958;3.592;2022-07-23T09:57:11;24.90;93.70
54168;DHT22;40072;50.958;3.592;2022-07-23T09:59:44;25.40;92.70
54168;DHT22;40072;50.958;3.592;2022-07-23T10:02:12;24.80;93.00
54168;DHT22;40072;50.958;3.592;2022-07-23T10:04:39;24.70;92.50
54168;DHT22;40072;50.958;3.592;2022-07-23T10:07:06;24.80;93.10
54168;DHT22;40072;50.958;3.592;2022-07-23T10:09:39;24.30;92.80
54168;DHT22;40072;50.958;3.592;2022-07-23T10:12:10;24.80;93.60
54168;DHT22;40072;50.958;3.592;2022-07-23T10:14:56;25.00;92.50
54168;DHT22;40072;50.958;3.592;2022-07-23T10:17:22;26.20;90.90
54168;DHT22;40072;50.958;3.592;2022-07-23T10:19:48;27.40;90.90
54168;DHT22;40072;50.958;3.592;2022-07-23T10:22:24;28.30;88.20
54168;DHT22;40072;50.958;3.592;2022-07-23T10:33:20;30.90;81.40
54168;DHT22;40072;50.958;3.592;2022-07-23T10:39:12;28.90;78.10
54168;DHT22;40072;50.958;3.592;2022-07-23T10:41:40;28.00;84.00
54168;DHT22;40072;50.958;3.592;2022-07-23T10:44:19;28.80;80.00
54168;DHT22;40072;50.958;3.592;2022-07-23T10:47:02;29.60;79.40
54168;DHT22;40072;50.958;3.592;2022-07-23T10:49:29;30.40;78.20
54168;DHT22;40072;50.958;3.592;2022-07-23T10:57:48;27.90;79.80
54168;DHT22;40072;50.958;3.592;2022-07-23T11:00:15;28.50;81.40
54168;DHT22;40072;50.958;3.592;2022-07-23T11:02:43;30.40;75.20
54168;DHT22;40072;50.958;3.592;2022-07-23T11:05:13;32.40;72.80
54168;DHT22;40072;50.958;3.592;2022-07-23T11:10:36;36.00;68.80
54168;DHT22;40072;50.958;3.592;2022-07-23T11:24:15;33.10;67.30
54168;DHT22;40072;50.958;3.592;2022-07-23T11:26:52;34.00;65.80
54168;DHT22;40072;50.958;3.592;2022-07-23T11:31:59;37.20;63.80
54168;DHT22;40072;50.958;3.592;2022-07-23T11:36:58;39.10;57.90
54168;DHT22;40072;50.958;3.592;2022-07-23T11:39:26;36.70;58.70
54168;DHT22;40072;50.958;3.592;2022-07-23T11:41:53;35.80;59.40
54168;DHT22;40072;50.958;3.592;2022-07-23T11:44:29;34.70;61.10
54168;DHT22;40072;50.958;3.592;2022-07-23T11:47:13;34.90;62.60
54168;DHT22;40072;50.958;3.592;2022-07-23T11:49:52;35.70;60.00
54168;DHT22;40072;50.958;3.592;2022-07-23T11:52:18;36.00;59.80
54168;DHT22;40072;50.958;3.592;2022-07-23T11:54:52;34.30;60.90
54168;DHT22;40072;50.958;3.592;2022-07-23T11:57:19;35.20;59.90
54168;DHT22;40072;50.958;3.592;2022-07-23T11:59:47;33.20;62.00
54168;DHT22;40072;50.958;3.592;2022-07-23T12:02:15;34.10;62.40
54168;DHT22;40072;50.958;3.592;2022-07-23T12:04:43;34.90;61.20
54168;DHT22;40072;50.958;3.592;2022-07-23T12:07:34;34.40;60.80
54168;DHT22;40072;50.958;3.592;2022-07-23T12:10:14;33.40;63.10
54168;DHT22;40072;50.958;3.592;2022-07-23T12:12:44;33.20;63.10
54168;DHT22;40072;50.958;3.592;2022-07-23T12:15:12;32.60;64.60
54168;DHT22;40072;50.958;3.592;2022-07-23T12:17:40;33.20;62.70
54168;DHT22;40072;50.958;3.592;2022-07-23T12:20:09;31.80;64.40
54168;DHT22;40072;50.958;3.592;2022-07-23T12:22:47;32.00;65.00
54168;DHT22;40072;50.958;3.592;2022-07-23T12:25:14;31.10;66.10
54168;DHT22;40072;50.958;3.592;2022-07-23T12:27:41;31.00;67.40
54168;DHT22;40072;50.958;3.592;2022-07-23T12:30:17;31.20;65.30
54168;DHT22;40072;50.958;3.592;2022-07-23T12:32:44;29.90;67.60
54168;DHT22;40072;50.958;3.592;2022-07-23T12:35:12;29.20;68.80
54168;DHT22;40072;50.958;3.592;2022-07-23T12:37:40;28.50;70.00
54168;DHT22;40072;50.958;3.592;2022-07-23T12:40:25;27.90;72.40
54168;DHT22;40072;50.958;3.592;2022-07-23T12:43:07;29.40;72.50
54168;DHT22;40072;50.958;3.592;2022-07-23T12:45:44;29.30;70.20
54168;DHT22;40072;50.958;3.592;2022-07-23T12:51:21;34.30;63.80
54168;DHT22;40072;50.958;3.592;2022-07-23T12:53:52;34.70;62.10
54168;DHT22;40072;50.958;3.592;2022-07-23T12:56:21;31.80;64.10
54168;DHT22;40072;50.958;3.592;2022-07-23T12:58:56;31.20;67.20
54168;DHT22;40072;50.958;3.592;2022-07-23T13:06:25;30.90;67.50
54168;DHT22;40072;50.958;3.592;2022-07-23T13:08:50;32.30;66.70
54168;DHT22;40072;50.958;3.592;2022-07-23T13:11:16;34.00;63.90
54168;DHT22;40072;50.958;3.592;2022-07-23T13:13:42;34.80;62.80
54168;DHT22;40072;50.958;3.592;2022-07-23T13:16:08;35.10;62.00
54168;DHT22;40072;50.958;3.592;2022-07-23T13:18:33;34.10;62.00
54168;DHT22;40072;50.958;3.592;2022-07-23T13:21:00;32.70;63.50
54168;DHT22;40072;50.958;3.592;2022-07-23T13:23:27;30.50;66.50
54168;DHT22;40072;50.958;3.592;2022-07-23T13:25:52;30.30;67.00
54168;DHT22;40072;50.958;3.592;2022-07-23T13:28:20;30.20;68.00
54168;DHT22;40072;50.958;3.592;2022-07-23T13:30:46;30.30;67.50
54168;DHT22;40072;50.958;3.592;2022-07-23T13:33:15;29.00;69.80
54168;DHT22;40072;50.958;3.592;2022-07-23T13:35:41;28.40;70.40
54168;DHT22;40072;50.958;3.592;2022-07-23T13:38:07;28.20;72.20
54168;DHT22;40072;50.958;3.592;2022-07-23T13:40:37;28.90;69.90
54168;DHT22;40072;50.958;3.592;2022-07-23T13:43:05;30.90;67.60
54168;DHT22;40072;50.958;3.592;2022-07-23T13:45:32;30.50;68.30
54168;DHT22;40072;50.958;3.592;2022-07-23T13:47:57;31.90;66.70
54168;DHT22;40072;50.958;3.592;2022-07-23T13:50:23;33.00;64.50
54168;DHT22;40072;50.958;3.592;2022-07-23T13:52:49;33.60;65.70
54168;DHT22;40072;50.958;3.592;2022-07-23T13:55:15;33.90;64.70
54168;DHT22;40072;50.958;3.592;2022-07-23T13:57:40;35.10;62.30
54168;DHT22;40072;50.958;3.592;2022-07-23T14:00:07;33.50;63.10
54168;DHT22;40072;50.958;3.592;2022-07-23T14:02:36;32.70;63.60
54168;DHT22;40072;50.958;3.592;2022-07-23T14:05:04;31.80;65.30
54168;DHT22;40072;50.958;3.592;2022-07-23T14:07:30;31.90;66.40
54168;DHT22;40072;50.958;3.592;2022-07-23T14:09:55;32.00;67.30
54168;DHT22;40072;50.958;3.592;2022-07-23T14:12:21;32.30;67.10
54168;DHT22;40072;50.958;3.592;2022-07-23T14:14:47;32.00;67.00
54168;DHT22;40072;50.958;3.592;2022-07-23T14:17:13;32.00;67.80
54168;DHT22;40072;50.958;3.592;2022-07-23T14:19:39;32.00;68.20
54168;DHT22;40072;50.958;3.592;2022-07-23T14:22:04;32.30;66.30
54168;DHT22;40072;50.958;3.592;2022-07-23T14:24:30;32.80;65.40
54168;DHT22;40072;50.958;3.592;2022-07-23T14:26:55;33.10;66.60
54168;DHT22;40072;50.958;3.592;2022-07-23T14:29:21;33.90;63.60
54168;DHT22;40072;50.958;3.592;2022-07-23T14:31:47;33.50;65.30
54168;DHT22;40072;50.958;3.592;2022-07-23T14:34:13;32.80;64.60
54168;DHT22;40072;50.958;3.592;2022-07-23T14:36:39;32.40;64.90
54168;DHT22;40072;50.958;3.592;2022-07-23T14:39:05;31.90;67.70
54168;DHT22;40072;50.958;3.592;2022-07-23T14:41:31;33.90;66.00
54168;DHT22;40072;50.958;3.592;2022-07-23T14:43:56;34.80;65.90
54168;DHT22;40072;50.958;3.592;2022-07-23T14:46:22;35.40;63.80
54168;DHT22;40072;50.958;3.592;2022-07-23T14:48:48;36.20;61.30
54168;DHT22;40072;50.958;3.592;2022-07-23T14:51:13;35.70;61.50
54168;DHT22;40072;50.958;3.592;2022-07-23T14:53:39;35.70;63.80
54168;DHT22;40072;50.958;3.592;2022-07-23T14:56:05;35.40;63.30
54168;DHT22;40072;50.958;3.592;2022-07-23T14:58:30;34.50;62.50
54168;DHT22;40072;50.958;3.592;2022-07-23T15:00:56;33.80;62.60
54168;DHT22;40072;50.958;3.592;2022-07-23T15:03:22;34.00;64.60
54168;DHT22;40072;50.958;3.592;2022-07-23T15:05:47;35.10;64.30
54168;DHT22;40072;50.958;3.592;2022-07-23T15:08:13;36.00;61.60
54168;DHT22;40072;50.958;3.592;2022-07-23T15:10:39;34.50;60.70
54168;DHT22;40072;50.958;3.592;2022-07-23T15:13:04;33.50;63.80
54168;DHT22;40072;50.958;3.592;2022-07-23T15:15:30;33.40;63.40
54168;DHT22;40072;50.958;3.592;2022-07-23T15:17:56;33.60;64.50
54168;DHT22;40072;50.958;3.592;2022-07-23T15:20:22;34.20;63.60
54168;DHT22;40072;50.958;3.592;2022-07-23T15:22:48;33.30;64.00
54168;DHT22;40072;50.958;3.592;2022-07-23T15:25:13;33.80;64.70
54168;DHT22;40072;50.958;3.592;2022-07-23T15:27:39;33.50;63.80
54168;DHT22;40072;50.958;3.592;2022-07-23T15:30:06;32.60;65.50
54168;DHT22;40072;50.958;3.592;2022-07-23T15:32:31;32.50;66.80
54168;DHT22;40072;50.958;3.592;2022-07-23T15:34:57;33.20;66.30
54168;DHT22;40072;50.958;3.592;2022-07-23T15:37:23;33.60;65.50
54168;DHT22;40072;50.958;3.592;2022-07-23T15:39:49;33.70;64.80
54168;DHT22;40072;50.958;3.592;2022-07-23T15:42:15;33.40;65.90
54168;DHT22;40072;50.958;3.592;2022-07-23T15:44:41;33.10;65.90
54168;DHT22;40072;50.958;3.592;2022-07-23T15:47:12;32.60;64.60
54168;DHT22;40072;50.958;3.592;2022-07-23T15:49:38;33.00;66.90
54168;DHT22;40072;50.958;3.592;2022-07-23T15:52:04;33.00;63.80
54168;DHT22;40072;50.958;3.592;2022-07-23T15:54:29;33.20;64.60
54168;DHT22;40072;50.958;3.592;2022-07-23T15:56:55;32.80;64.10
54168;DHT22;40072;50.958;3.592;2022-07-23T15:59:21;31.80;65.20
54168;DHT22;40072;50.958;3.592;2022-07-23T16:01:46;31.70;65.60
54168;DHT22;40072;50.958;3.592;2022-07-23T16:04:12;32.10;65.40
54168;DHT22;40072;50.958;3.592;2022-07-23T16:06:37;31.80;64.90
54168;DHT22;40072;50.958;3.592;2022-07-23T16:09:06;30.90;67.10
54168;DHT22;40072;50.958;3.592;2022-07-23T16:11:31;31.00;67.70
54168;DHT22;40072;50.958;3.592;2022-07-23T16:13:57;30.80;66.50
54168;DHT22;40072;50.958;3.592;2022-07-23T16:16:23;30.00;68.00